sensor_id;sensor_type;location;lat;lon;timestamp;pressure;altitude;pressure_sealevel;temperature;humidity
58879;BME280;44660;42.664;23.266;2023-02-20T00:01:14;94818.84;;;9.90;50.42
58879;BME280;44660;42.664;23.266;2023-02-20T00:03:40;94804.31;;;9.80;50.38
58879;BME280;44660;42.664;23.266;2023-02-20T00:06:05;94860.28;;;10.26;50.21
58879;BME280;44660;42.664;23.266;2023-02-20T00:08:31;94851.38;;;10.21;50.41
58879;BME280;44660;42.664;23.266;2023-02-20T00:10:56;94820.34;;;9.86;50.93
58879;BME280;44660;42.664;23.266;2023-02-20T00:13:22;94848.88;;;10.02;51.09
58879;BME280;44660;42.664;23.266;2023-02-20T00:15:47;94759.97;;;9.45;51.49
58879;BME280;44660;42.664;23.266;2023-02-20T00:18:13;94836.84;;;9.88;51.92
58879;BME280;44660;42.664;23.266;2023-02-20T00:20:38;94837.53;;;9.71;52.16
58879;BME280;44660;42.664;23.266;2023-02-20T00:23:03;94823.81;;;9.74;52.25
58879;BME280;44660;42.664;23.266;2023-02-20T00:25:29;94822.53;;;9.65;52.34
58879;BME280;44660;42.664;23.266;2023-02-20T00:27:54;94847.94;;;9.85;52.29
58879;BME280;44660;42.664;23.266;2023-02-20T00:30:22;94815.13;;;9.67;52.47
58879;BME280;44660;42.664;23.266;2023-02-20T00:32:49;94824.41;;;9.76;52.60
58879;BME280;44660;42.664;23.266;2023-02-20T00:35:16;94839.28;;;9.89;52.60
58879;BME280;44660;42.664;23.266;2023-02-20T00:37:41;94767.56;;;9.30;52.93
58879;BME280;44660;42.664;23.266;2023-02-20T00:40:07;94803.84;;;9.60;53.00
58879;BME280;44660;42.664;23.266;2023-02-20T00:42:33;94781.66;;;9.42;52.83
58879;BME280;44660;42.664;23.266;2023-02-20T00:44:59;94821.84;;;9.70;52.94
58879;BME280;44660;42.664;23.266;2023-02-20T00:47:24;94802.78;;;9.61;52.57
58879;BME280;44660;42.664;23.266;2023-02-20T00:49:50;94842.75;;;9.78;52.52
58879;BME280;44660;42.664;23.266;2023-02-20T00:52:15;94824.38;;;9.53;52.79
58879;BME280;44660;42.664;23.266;2023-02-20T00:54:41;94854.53;;;9.70;52.58
58879;BME280;44660;42.664;23.266;2023-02-20T00:57:07;94835.06;;;9.34;53.13
58879;BME280;44660;42.664;23.266;2023-02-20T00:59:32;94837.81;;;9.27;53.24
58879;BME280;44660;42.664;23.266;2023-02-20T01:01:58;94841.41;;;9.33;52.73
58879;BME280;44660;42.664;23.266;2023-02-20T01:04:23;94840.50;;;9.39;52.39
58879;BME280;44660;42.664;23.266;2023-02-20T01:06:49;94886.13;;;9.60;52.64
58879;BME280;44660;42.664;23.266;2023-02-20T01:09:14;94850.63;;;9.30;52.41
58879;BME280;44660;42.664;23.266;2023-02-20T01:11:43;94892.31;;;9.42;53.51
58879;BME280;44660;42.664;23.266;2023-02-20T01:14:09;94894.75;;;9.43;53.67
58879;BME280;44660;42.664;23.266;2023-02-20T01:16:35;94864.72;;;9.31;54.00
58879;BME280;44660;42.664;23.266;2023-02-20T01:19:00;94878.91;;;9.37;54.08
58879;BME280;44660;42.664;23.266;2023-02-20T01:21:26;94889.34;;;9.50;53.98
58879;BME280;44660;42.664;23.266;2023-02-20T01:23:52;94892.91;;;9.56;53.90
58879;BME280;44660;42.664;23.266;2023-02-20T01:26:17;94895.66;;;9.37;54.55
58879;BME280;44660;42.664;23.266;2023-02-20T01:28:46;94876.34;;;9.18;54.85
58879;BME280;44660;42.664;23.266;2023-02-20T01:31:14;94897.53;;;9.48;54.48
58879;BME280;44660;42.664;23.266;2023-02-20T01:33:43;94887.94;;;9.47;54.63
58879;BME280;44660;42.664;23.266;2023-02-20T01:36:09;94901.84;;;9.61;54.17
58879;BME280;44660;42.664;23.266;2023-02-20T01:38:35;94902.06;;;9.60;54.02
58879;BME280;44660;42.664;23.266;2023-02-20T01:41:00;94911.91;;;9.83;53.76
58879;BME280;44660;42.664;23.266;2023-02-20T01:43:26;94910.72;;;9.67;54.23
58879;BME280;44660;42.664;23.266;2023-02-20T01:45:51;94913.84;;;9.64;54.59
58879;BME280;44660;42.664;23.266;2023-02-20T01:48:22;94917.50;;;9.51;55.10
58879;BME280;44660;42.664;23.266;2023-02-20T01:50:50;94921.06;;;9.45;55.36
58879;BME280;44660;42.664;23.266;2023-02-20T01:53:20;94906.97;;;9.44;55.82
58879;BME280;44660;42.664;23.266;2023-02-20T01:55:57;94921.38;;;9.37;56.45
58879;BME280;44660;42.664;23.266;2023-02-20T01:58:28;94936.28;;;9.50;56.03
58879;BME280;44660;42.664;23.266;2023-02-20T02:00:56;94947.91;;;9.37;56.56
58879;BME280;44660;42.664;23.266;2023-02-20T02:03:28;94955.06;;;9.36;56.47
58879;BME280;44660;42.664;23.266;2023-02-20T02:06:01;94937.25;;;9.25;56.70
58879;BME280;44660;42.664;23.266;2023-02-20T02:08:28;94936.22;;;9.26;56.51
58879;BME280;44660;42.664;23.266;2023-02-20T02:13:26;94953.47;;;9.17;55.83
58879;BME280;44660;42.664;23.266;2023-02-20T02:16:03;94943.47;;;9.00;56.26
58879;BME280;44660;42.664;23.266;2023-02-20T02:18:42;94925.97;;;8.80;56.68
58879;BME280;44660;42.664;23.266;2023-02-20T02:27:08;94941.06;;;8.80;56.27
58879;BME280;44660;42.664;23.266;2023-02-20T02:41:27;94921.44;;;8.44;55.98
58879;BME280;44660;42.664;23.266;2023-02-20T02:43:58;94967.13;;;8.64;56.06
58879;BME280;44660;42.664;23.266;2023-02-20T02:49:02;94924.88;;;8.26;55.83
58879;BME280;44660;42.664;23.266;2023-02-20T02:51:35;94962.63;;;8.46;55.91
58879;BME280;44660;42.664;23.266;2023-02-20T02:54:13;94955.50;;;8.40;56.04
58879;BME280;44660;42.664;23.266;2023-02-20T02:56:43;94942.09;;;8.35;55.94
58879;BME280;44660;42.664;23.266;2023-02-20T02:59:26;94971.25;;;8.35;56.31
58879;BME280;44660;42.664;23.266;2023-02-20T03:01:58;94939.47;;;8.10;56.37
58879;BME280;44660;42.664;23.266;2023-02-20T03:04:26;94907.88;;;7.90;56.54
58879;BME280;44660;42.664;23.266;2023-02-20T03:06:58;94933.31;;;7.91;57.06
58879;BME280;44660;42.664;23.266;2023-02-20T03:09:36;94981.75;;;8.23;56.64
58879;BME280;44660;42.664;23.266;2023-02-20T03:12:03;94950.53;;;8.07;57.13
58879;BME280;44660;42.664;23.266;2023-02-20T03:14:37;94974.06;;;8.15;57.04
58879;BME280;44660;42.664;23.266;2023-02-20T03:17:31;94969.00;;;8.13;56.91
58879;BME280;44660;42.664;23.266;2023-02-20T03:20:00;94989.22;;;8.08;56.95
58879;BME280;44660;42.664;23.266;2023-02-20T03:22:36;94950.13;;;7.78;56.96
58879;BME280;44660;42.664;23.266;2023-02-20T03:25:34;94955.59;;;7.83;56.85
58879;BME280;44660;42.664;23.266;2023-02-20T03:27:59;94988.84;;;8.04;56.89
58879;BME280;44660;42.664;23.266;2023-02-20T03:30:40;94990.88;;;8.02;56.90
58879;BME280;44660;42.664;23.266;2023-02-20T03:33:31;94962.13;;;7.80;56.56
58879;BME280;44660;42.664;23.266;2023-02-20T03:36:31;94952.31;;;7.56;57.23
58879;BME280;44660;42.664;23.266;2023-02-20T03:39:20;94958.63;;;7.55;57.30
58879;BME280;44660;42.664;23.266;2023-02-20T03:42:07;94914.41;;;7.30;56.94
58879;BME280;44660;42.664;23.266;2023-02-20T03:44:53;94992.25;;;7.79;56.91
58879;BME280;44660;42.664;23.266;2023-02-20T03:47:21;95008.47;;;7.90;56.63
58879;BME280;44660;42.664;23.266;2023-02-20T03:49:49;95013.03;;;7.82;56.69
58879;BME280;44660;42.664;23.266;2023-02-20T03:52:18;95016.88;;;7.87;56.53
58879;BME280;44660;42.664;23.266;2023-02-20T03:54:44;94926.53;;;7.12;56.84
58879;BME280;44660;42.664;23.266;2023-02-20T03:57:12;95031.47;;;7.64;57.18
58879;BME280;44660;42.664;23.266;2023-02-20T04:02:21;95053.75;;;7.81;56.40
58879;BME280;44660;42.664;23.266;2023-02-20T04:04:51;95029.81;;;7.63;56.13
58879;BME280;44660;42.664;23.266;2023-02-20T04:07:27;95029.81;;;7.63;56.07
58879;BME280;44660;42.664;23.266;2023-02-20T04:09:57;95053.38;;;7.78;56.12
58879;BME280;44660;42.664;23.266;2023-02-20T04:12:25;95040.69;;;7.87;55.62
58879;BME280;44660;42.664;23.266;2023-02-20T04:14:53;95035.41;;;7.87;55.58
58879;BME280;44660;42.664;23.266;2023-02-20T04:17:28;94999.00;;;7.75;55.56
58879;BME280;44660;42.664;23.266;2023-02-20T04:19:55;94956.06;;;7.41;55.46
58879;BME280;44660;42.664;23.266;2023-02-20T04:22:25;95010.22;;;7.77;55.79
58879;BME280;44660;42.664;23.266;2023-02-20T04:25:08;95014.50;;;7.78;56.30
58879;BME280;44660;42.664;23.266;2023-02-20T04:27:37;94988.25;;;7.70;55.97
58879;BME280;44660;42.664;23.266;2023-02-20T04:30:03;95011.66;;;7.73;56.10
58879;BME280;44660;42.664;23.266;2023-02-20T04:32:29;95005.22;;;7.62;56.37
58879;BME280;44660;42.664;23.266;2023-02-20T04:34:54;95065.31;;;7.94;56.05
58879;BME280;44660;42.664;23.266;2023-02-20T04:37:20;95054.72;;;7.87;56.05
58879;BME280;44660;42.664;23.266;2023-02-20T04:39:46;95058.44;;;7.86;55.87
58879;BME280;44660;42.664;23.266;2023-02-20T04:42:12;95029.97;;;7.75;55.50
58879;BME280;44660;42.664;23.266;2023-02-20T04:44:38;95035.84;;;7.83;54.87
58879;BME280;44660;42.664;23.266;2023-02-20T04:47:12;95050.09;;;7.82;54.72
58879;BME280;44660;42.664;23.266;2023-02-20T04:49:37;95045.56;;;7.90;53.97
58879;BME280;44660;42.664;23.266;2023-02-20T04:52:03;95030.19;;;7.73;54.26
58879;BME280;44660;42.664;23.266;2023-02-20T04:54:29;95034.31;;;7.62;54.13
58879;BME280;44660;42.664;23.266;2023-02-20T04:56:54;95053.19;;;7.73;54.02
58879;BME280;44660;42.664;23.266;2023-02-20T04:59:20;95040.47;;;7.56;53.83
58879;BME280;44660;42.664;23.266;2023-02-20T05:01:45;95010.66;;;7.35;53.93
58879;BME280;44660;42.664;23.266;2023-02-20T05:04:15;95036.03;;;7.43;53.40
58879;BME280;44660;42.664;23.266;2023-02-20T05:06:51;95055.59;;;7.42;53.36
58879;BME280;44660;42.664;23.266;2023-02-20T05:09:18;95083.47;;;7.45;53.33
58879;BME280;44660;42.664;23.266;2023-02-20T05:11:44;95020.53;;;7.01;53.04
58879;BME280;44660;42.664;23.266;2023-02-20T05:14:09;95069.81;;;7.41;52.77
58879;BME280;44660;42.664;23.266;2023-02-20T05:16:39;95084.28;;;7.45;52.67
58879;BME280;44660;42.664;23.266;2023-02-20T05:19:06;95087.13;;;7.50;52.73
58879;BME280;44660;42.664;23.266;2023-02-20T05:21:31;95077.59;;;7.36;52.90
58879;BME280;44660;42.664;23.266;2023-02-20T05:24:15;95081.06;;;7.30;52.97
58879;BME280;44660;42.664;23.266;2023-02-20T05:26:41;95099.94;;;7.40;53.01
58879;BME280;44660;42.664;23.266;2023-02-20T05:29:07;95103.25;;;7.35;53.29
58879;BME280;44660;42.664;23.266;2023-02-20T05:31:34;95081.69;;;7.32;53.34
58879;BME280;44660;42.664;23.266;2023-02-20T05:34:00;95093.88;;;7.33;53.66
58879;BME280;44660;42.664;23.266;2023-02-20T05:36:25;95118.69;;;7.45;53.41
58879;BME280;44660;42.664;23.266;2023-02-20T05:38:51;95090.22;;;7.27;53.64
58879;BME280;44660;42.664;23.266;2023-02-20T05:41:17;95102.88;;;7.18;54.30
58879;BME280;44660;42.664;23.266;2023-02-20T05:43:44;95064.28;;;6.91;54.33
58879;BME280;44660;42.664;23.266;2023-02-20T05:46:11;95089.88;;;7.10;54.81
58879;BME280;44660;42.664;23.266;2023-02-20T05:48:37;95122.59;;;7.29;54.65
58879;BME280;44660;42.664;23.266;2023-02-20T05:51:02;95106.09;;;7.34;54.61
58879;BME280;44660;42.664;23.266;2023-02-20T05:53:29;95081.31;;;7.22;54.39
58879;BME280;44660;42.664;23.266;2023-02-20T05:55:55;95085.69;;;7.41;53.74
58879;BME280;44660;42.664;23.266;2023-02-20T05:58:21;95114.75;;;7.61;53.62
58879;BME280;44660;42.664;23.266;2023-02-20T06:00:47;95080.41;;;7.48;53.12
58879;BME280;44660;42.664;23.266;2023-02-20T06:03:13;95091.09;;;7.66;52.72
58879;BME280;44660;42.664;23.266;2023-02-20T06:05:39;95094.19;;;7.57;52.70
58879;BME280;44660;42.664;23.266;2023-02-20T06:08:04;95115.56;;;7.62;52.37
58879;BME280;44660;42.664;23.266;2023-02-20T06:10:30;95100.66;;;7.67;52.59
58879;BME280;44660;42.664;23.266;2023-02-20T06:12:56;95115.75;;;7.67;52.55
58879;BME280;44660;42.664;23.266;2023-02-20T06:15:21;95130.56;;;7.75;52.65
58879;BME280;44660;42.664;23.266;2023-02-20T06:17:47;95142.50;;;7.97;52.39
58879;BME280;44660;42.664;23.266;2023-02-20T06:20:12;95138.44;;;7.95;52.51
58879;BME280;44660;42.664;23.266;2023-02-20T06:22:38;95126.56;;;8.04;52.27
58879;BME280;44660;42.664;23.266;2023-02-20T06:25:04;95089.56;;;7.91;51.53
58879;BME280;44660;42.664;23.266;2023-02-20T06:27:30;95081.44;;;7.85;52.04
58879;BME280;44660;42.664;23.266;2023-02-20T06:29:56;95064.00;;;7.71;52.32
58879;BME280;44660;42.664;23.266;2023-02-20T06:32:21;95128.72;;;8.21;51.88
58879;BME280;44660;42.664;23.266;2023-02-20T06:34:47;95065.88;;;7.96;51.92
58879;BME280;44660;42.664;23.266;2023-02-20T06:37:12;95050.50;;;7.79;51.39
58879;BME280;44660;42.664;23.266;2023-02-20T06:39:38;95148.75;;;8.48;49.78
58879;BME280;44660;42.664;23.266;2023-02-20T06:42:04;95130.00;;;8.43;49.55
58879;BME280;44660;42.664;23.266;2023-02-20T06:44:30;95150.38;;;8.49;48.84
58879;BME280;44660;42.664;23.266;2023-02-20T06:46:57;95121.03;;;8.38;49.29
58879;BME280;44660;42.664;23.266;2023-02-20T06:49:23;95092.25;;;8.16;49.09
58879;BME280;44660;42.664;23.266;2023-02-20T06:51:51;95149.56;;;8.74;48.18
58879;BME280;44660;42.664;23.266;2023-02-20T06:54:17;95155.31;;;8.71;48.18
58879;BME280;44660;42.664;23.266;2023-02-20T06:56:46;95118.19;;;8.71;47.55
58879;BME280;44660;42.664;23.266;2023-02-20T06:59:12;95132.09;;;8.66;47.81
58879;BME280;44660;42.664;23.266;2023-02-20T07:01:41;95135.03;;;8.52;48.47
58879;BME280;44660;42.664;23.266;2023-02-20T07:04:29;95150.41;;;8.75;47.90
58879;BME280;44660;42.664;23.266;2023-02-20T07:06:55;95150.69;;;8.60;47.10
58879;BME280;44660;42.664;23.266;2023-02-20T07:09:21;95165.69;;;8.73;47.22
58879;BME280;44660;42.664;23.266;2023-02-20T07:11:47;95137.28;;;8.55;47.76
58879;BME280;44660;42.664;23.266;2023-02-20T07:14:16;95163.13;;;8.91;46.78
58879;BME280;44660;42.664;23.266;2023-02-20T07:16:41;95172.94;;;9.09;45.81
58879;BME280;44660;42.664;23.266;2023-02-20T07:19:06;95134.28;;;8.95;44.78
58879;BME280;44660;42.664;23.266;2023-02-20T07:21:32;95153.72;;;8.89;44.66
58879;BME280;44660;42.664;23.266;2023-02-20T07:23:57;95197.91;;;9.27;43.98
58879;BME280;44660;42.664;23.266;2023-02-20T07:26:25;95186.38;;;9.33;43.30
58879;BME280;44660;42.664;23.266;2023-02-20T07:28:52;95189.03;;;9.33;42.96
58879;BME280;44660;42.664;23.266;2023-02-20T07:31:18;95174.88;;;9.21;42.26
58879;BME280;44660;42.664;23.266;2023-02-20T07:33:43;95192.91;;;9.37;42.29
58879;BME280;44660;42.664;23.266;2023-02-20T07:36:10;95184.94;;;9.37;42.05
58879;BME280;44660;42.664;23.266;2023-02-20T07:38:36;95193.94;;;9.55;41.66
58879;BME280;44660;42.664;23.266;2023-02-20T07:41:02;95149.38;;;9.38;41.13
58879;BME280;44660;42.664;23.266;2023-02-20T07:43:27;95126.84;;;9.29;41.17
58879;BME280;44660;42.664;23.266;2023-02-20T07:45:53;95169.78;;;9.82;40.84
58879;BME280;44660;42.664;23.266;2023-02-20T07:48:18;95176.69;;;10.01;40.29
58879;BME280;44660;42.664;23.266;2023-02-20T07:50:44;95186.22;;;10.21;39.54
58879;BME280;44660;42.664;23.266;2023-02-20T07:53:13;95126.31;;;9.76;38.66
58879;BME280;44660;42.664;23.266;2023-02-20T07:55:39;95202.78;;;10.04;38.87
58879;BME280;44660;42.664;23.266;2023-02-20T07:58:04;95203.94;;;9.78;39.10
58879;BME280;44660;42.664;23.266;2023-02-20T08:00:30;95152.00;;;9.45;39.23
58879;BME280;44660;42.664;23.266;2023-02-20T08:02:55;95210.19;;;10.02;39.49
58879;BME280;44660;42.664;23.266;2023-02-20T08:05:21;95212.19;;;10.56;38.28
58879;BME280;44660;42.664;23.266;2023-02-20T08:07:48;95197.59;;;12.07;35.56
58879;BME280;44660;42.664;23.266;2023-02-20T08:10:16;95195.91;;;15.27;30.40
58879;BME280;44660;42.664;23.266;2023-02-20T08:12:42;95197.47;;;17.75;26.46
58879;BME280;44660;42.664;23.266;2023-02-20T08:15:08;95192.03;;;20.72;23.26
58879;BME280;44660;42.664;23.266;2023-02-20T08:17:37;95186.81;;;22.41;20.40
58879;BME280;44660;42.664;23.266;2023-02-20T08:20:05;95197.47;;;24.41;19.17
58879;BME280;44660;42.664;23.266;2023-02-20T08:22:30;95208.09;;;26.10;17.20
58879;BME280;44660;42.664;23.266;2023-02-20T08:24:56;95174.69;;;26.60;16.43
58879;BME280;44660;42.664;23.266;2023-02-20T08:27:21;95181.75;;;28.38;15.09
58879;BME280;44660;42.664;23.266;2023-02-20T08:29:47;95186.03;;;29.70;14.44
58879;BME280;44660;42.664;23.266;2023-02-20T08:32:12;95188.13;;;30.85;13.50
58879;BME280;44660;42.664;23.266;2023-02-20T08:34:38;95175.63;;;32.05;12.60
58879;BME280;44660;42.664;23.266;2023-02-20T08:37:03;95177.31;;;31.27;12.63
58879;BME280;44660;42.664;23.266;2023-02-20T08:39:29;95148.06;;;32.48;11.97
58879;BME280;44660;42.664;23.266;2023-02-20T08:41:54;95169.81;;;32.83;11.64
58879;BME280;44660;42.664;23.266;2023-02-20T08:44:20;95173.38;;;31.87;12.15
58879;BME280;44660;42.664;23.266;2023-02-20T08:46:50;95194.25;;;30.78;13.00
58879;BME280;44660;42.664;23.266;2023-02-20T08:49:16;95168.53;;;32.50;11.67
58879;BME280;44660;42.664;23.266;2023-02-20T08:51:51;95152.47;;;32.79;11.29
58879;BME280;44660;42.664;23.266;2023-02-20T08:54:17;95143.25;;;32.41;11.61
58879;BME280;44660;42.664;23.266;2023-02-20T08:56:43;95160.84;;;33.17;10.47
58879;BME280;44660;42.664;23.266;2023-02-20T08:59:08;95154.19;;;32.37;11.33
58879;BME280;44660;42.664;23.266;2023-02-20T09:01:34;95144.19;;;33.06;11.05
58879;BME280;44660;42.664;23.266;2023-02-20T09:04:00;95140.84;;;33.54;10.59
58879;BME280;44660;42.664;23.266;2023-02-20T09:06:27;95160.97;;;34.41;10.19
58879;BME280;44660;42.664;23.266;2023-02-20T09:08:53;95182.03;;;34.60;9.96
58879;BME280;44660;42.664;23.266;2023-02-20T09:11:19;95158.69;;;35.09;9.87
58879;BME280;44660;42.664;23.266;2023-02-20T09:13:47;95157.28;;;34.78;10.08
58879;BME280;44660;42.664;23.266;2023-02-20T09:16:14;95151.97;;;34.47;10.14
58879;BME280;44660;42.664;23.266;2023-02-20T09:18:40;95146.13;;;35.23;9.58
58879;BME280;44660;42.664;23.266;2023-02-20T09:21:10;95153.47;;;35.96;9.61
58879;BME280;44660;42.664;23.266;2023-02-20T09:23:36;95165.19;;;35.50;9.73
58879;BME280;44660;42.664;23.266;2023-02-20T09:26:02;95158.34;;;34.59;10.27
58879;BME280;44660;42.664;23.266;2023-02-20T09:28:27;95159.13;;;35.15;9.81
58879;BME280;44660;42.664;23.266;2023-02-20T09:30:53;95162.97;;;34.40;10.39
58879;BME280;44660;42.664;23.266;2023-02-20T09:33:20;95150.56;;;34.23;10.25
58879;BME280;44660;42.664;23.266;2023-02-20T09:35:46;95136.75;;;35.42;10.20
58879;BME280;44660;42.664;23.266;2023-02-20T09:38:14;95150.28;;;37.09;9.07
58879;BME280;44660;42.664;23.266;2023-02-20T09:40:40;95142.34;;;37.12;8.91
58879;BME280;44660;42.664;23.266;2023-02-20T09:46:29;95160.56;;;33.94;10.47
58879;BME280;44660;42.664;23.266;2023-02-20T09:49:11;95154.31;;;32.45;11.04
58879;BME280;44660;42.664;23.266;2023-02-20T09:51:42;95164.00;;;31.69;11.78
58879;BME280;44660;42.664;23.266;2023-02-20T09:54:16;95128.31;;;31.10;11.97
58879;BME280;44660;42.664;23.266;2023-02-20T09:56:53;95152.06;;;32.54;11.07
58879;BME280;44660;42.664;23.266;2023-02-20T10:04:46;95166.41;;;32.67;10.52
58879;BME280;44660;42.664;23.266;2023-02-20T10:07:36;95153.97;;;32.23;10.84
58879;BME280;44660;42.664;23.266;2023-02-20T10:10:18;95134.47;;;30.36;11.55
58879;BME280;44660;42.664;23.266;2023-02-20T10:13:05;95095.31;;;32.42;10.54
58879;BME280;44660;42.664;23.266;2023-02-20T10:18:23;95143.69;;;35.07;8.52
58879;BME280;44660;42.664;23.266;2023-02-20T10:23:48;95134.31;;;35.33;8.78
58879;BME280;44660;42.664;23.266;2023-02-20T10:26:25;95124.63;;;34.31;9.26
58879;BME280;44660;42.664;23.266;2023-02-20T10:28:53;95123.00;;;34.82;8.72
58879;BME280;44660;42.664;23.266;2023-02-20T10:31:36;95119.78;;;34.70;8.88
58879;BME280;44660;42.664;23.266;2023-02-20T10:34:10;95090.03;;;35.11;8.95
58879;BME280;44660;42.664;23.266;2023-02-20T10:36:42;95106.25;;;33.60;9.29
58879;BME280;44660;42.664;23.266;2023-02-20T10:39:11;95106.63;;;32.64;9.69
58879;BME280;44660;42.664;23.266;2023-02-20T10:41:39;95112.72;;;30.78;11.00
58879;BME280;44660;42.664;23.266;2023-02-20T10:44:24;95114.06;;;30.17;11.81
58879;BME280;44660;42.664;23.266;2023-02-20T10:47:03;95112.00;;;27.69;13.30
58879;BME280;44660;42.664;23.266;2023-02-20T10:49:41;95107.56;;;26.47;14.23
58879;BME280;44660;42.664;23.266;2023-02-20T10:52:15;95103.22;;;25.38;15.10
58879;BME280;44660;42.664;23.266;2023-02-20T10:54:46;95112.69;;;24.04;16.30
58879;BME280;44660;42.664;23.266;2023-02-20T10:57:27;95106.53;;;22.81;17.50
58879;BME280;44660;42.664;23.266;2023-02-20T11:00:02;95097.06;;;21.92;18.04
58879;BME280;44660;42.664;23.266;2023-02-20T11:02:35;95100.59;;;21.31;18.76
58879;BME280;44660;42.664;23.266;2023-02-20T11:05:10;95120.63;;;20.78;19.74
58879;BME280;44660;42.664;23.266;2023-02-20T11:07:37;95136.88;;;19.92;20.52
58879;BME280;44660;42.664;23.266;2023-02-20T11:10:04;95089.91;;;19.68;21.51
58879;BME280;44660;42.664;23.266;2023-02-20T11:12:38;95114.56;;;18.98;21.68
58879;BME280;44660;42.664;23.266;2023-02-20T11:15:09;95122.03;;;18.66;22.42
58879;BME280;44660;42.664;23.266;2023-02-20T11:17:38;95093.41;;;18.36;22.82
58879;BME280;44660;42.664;23.266;2023-02-20T11:20:05;95102.34;;;18.31;22.70
58879;BME280;44660;42.664;23.266;2023-02-20T11:22:43;95041.91;;;17.37;23.31
58879;BME280;44660;42.664;23.266;2023-02-20T11:25:17;95108.25;;;17.62;23.43
58879;BME280;44660;42.664;23.266;2023-02-20T11:27:49;95096.66;;;17.62;24.09
58879;BME280;44660;42.664;23.266;2023-02-20T11:30:31;95114.06;;;17.80;23.78
58879;BME280;44660;42.664;23.266;2023-02-20T11:33:03;95070.13;;;17.45;23.72
58879;BME280;44660;42.664;23.266;2023-02-20T11:35:38;95082.97;;;17.53;23.95
58879;BME280;44660;42.664;23.266;2023-02-20T11:40:46;95097.56;;;17.21;24.28
58879;BME280;44660;42.664;23.266;2023-02-20T11:45:38;95083.09;;;17.02;24.71
58879;BME280;44660;42.664;23.266;2023-02-20T11:48:12;95093.00;;;17.11;24.70
58879;BME280;44660;42.664;23.266;2023-02-20T11:50:39;95096.47;;;16.76;24.80
58879;BME280;44660;42.664;23.266;2023-02-20T11:53:05;95090.03;;;16.87;25.00
58879;BME280;44660;42.664;23.266;2023-02-20T11:55:32;95095.72;;;16.91;25.10
58879;BME280;44660;42.664;23.266;2023-02-20T11:57:58;95079.03;;;16.68;24.62
58879;BME280;44660;42.664;23.266;2023-02-20T12:00:26;95085.72;;;16.55;25.13
58879;BME280;44660;42.664;23.266;2023-02-20T12:05:42;95086.84;;;16.70;25.26
58879;BME280;44660;42.664;23.266;2023-02-20T12:10:59;95041.44;;;16.58;24.42
58879;BME280;44660;42.664;23.266;2023-02-20T12:13:26;94997.16;;;16.60;24.20
58879;BME280;44660;42.664;23.266;2023-02-20T12:19:02;95080.41;;;17.02;24.41
58879;BME280;44660;42.664;23.266;2023-02-20T12:35:33;95064.25;;;16.65;24.83
58879;BME280;44660;42.664;23.266;2023-02-20T12:46:59;95097.19;;;16.14;26.02
58879;BME280;44660;42.664;23.266;2023-02-20T13:01:02;95080.00;;;16.05;26.43
58879;BME280;44660;42.664;23.266;2023-02-20T13:03:45;95056.28;;;15.71;26.75
58879;BME280;44660;42.664;23.266;2023-02-20T13:06:21;95070.94;;;15.53;27.13
58879;BME280;44660;42.664;23.266;2023-02-20T13:09:02;95043.03;;;15.49;27.04
58879;BME280;44660;42.664;23.266;2023-02-20T13:11:33;95077.03;;;15.91;27.22
58879;BME280;44660;42.664;23.266;2023-02-20T13:17:20;95083.03;;;16.29;26.16
58879;BME280;44660;42.664;23.266;2023-02-20T13:22:14;95089.69;;;16.16;26.97
58879;BME280;44660;42.664;23.266;2023-02-20T13:24:41;95087.50;;;16.03;26.73
58879;BME280;44660;42.664;23.266;2023-02-20T13:27:09;95099.88;;;16.09;26.78
58879;BME280;44660;42.664;23.266;2023-02-20T13:30:19;95099.25;;;15.92;27.60
58879;BME280;44660;42.664;23.266;2023-02-20T13:32:44;95102.13;;;15.75;27.46
58879;BME280;44660;42.664;23.266;2023-02-20T13:38:14;95061.59;;;15.13;27.98
58879;BME280;44660;42.664;23.266;2023-02-20T13:40:42;95084.69;;;15.19;28.12
58879;BME280;44660;42.664;23.266;2023-02-20T13:45:41;95063.34;;;14.59;28.57
58879;BME280;44660;42.664;23.266;2023-02-20T13:56:46;95106.53;;;15.06;29.01
58879;BME280;44660;42.664;23.266;2023-02-20T13:59:16;95010.88;;;14.26;29.48
58879;BME280;44660;42.664;23.266;2023-02-20T14:04:38;95081.59;;;14.08;30.06
58879;BME280;44660;42.664;23.266;2023-02-20T14:07:03;95095.56;;;14.15;29.96
58879;BME280;44660;42.664;23.266;2023-02-20T14:09:29;95086.56;;;13.99;30.59
58879;BME280;44660;42.664;23.266;2023-02-20T14:12:03;95086.38;;;14.06;30.78
58879;BME280;44660;42.664;23.266;2023-02-20T14:14:37;95104.69;;;13.92;31.08
58879;BME280;44660;42.664;23.266;2023-02-20T14:17:17;95093.00;;;13.76;31.22
58879;BME280;44660;42.664;23.266;2023-02-20T14:19:57;95090.81;;;13.95;31.34
58879;BME280;44660;42.664;23.266;2023-02-20T14:22:27;95088.25;;;13.61;31.43
58879;BME280;44660;42.664;23.266;2023-02-20T14:27:40;95088.25;;;13.21;32.43
58879;BME280;44660;42.664;23.266;2023-02-20T14:32:44;95127.69;;;12.97;32.87
58879;BME280;44660;42.664;23.266;2023-02-20T14:40:34;95095.91;;;12.45;33.71
58879;BME280;44660;42.664;23.266;2023-02-20T14:43:02;95128.91;;;12.72;33.96
58879;BME280;44660;42.664;23.266;2023-02-20T14:45:29;95128.91;;;12.72;33.85
58879;BME280;44660;42.664;23.266;2023-02-20T14:47:58;95131.94;;;12.64;33.61
58879;BME280;44660;42.664;23.266;2023-02-20T14:50:25;95131.41;;;12.62;33.80
58879;BME280;44660;42.664;23.266;2023-02-20T14:53:01;95063.53;;;11.95;34.18
58879;BME280;44660;42.664;23.266;2023-02-20T14:55:27;95132.19;;;12.17;34.94
58879;BME280;44660;42.664;23.266;2023-02-20T14:57:53;95052.38;;;11.69;34.65
58879;BME280;44660;42.664;23.266;2023-02-20T15:02:50;95105.44;;;11.71;35.06
58879;BME280;44660;42.664;23.266;2023-02-20T15:05:31;95153.25;;;11.77;35.55
58879;BME280;44660;42.664;23.266;2023-02-20T15:08:12;95123.53;;;11.45;35.89
58879;BME280;44660;42.664;23.266;2023-02-20T15:10:41;95151.19;;;11.68;35.72